Etusivu
METAR-TAF:

METAR-TAF

Lentoasemat :

Fairmont Municipal Airport

Fairmont, Minnesota, Yhdysvallat

Leveyspiiri: 43-39N, Pituuspiiri: 094-25W, korkeus merenpinnasta: 354 m

Tämänhetkinen sää

Tämä raportti tehtiin 45 minuuttia sitten, kello 19.56 UTC
Tuuli 11 kn luoteesta
Lämpötila -4°C
Kosteus 68%
Ilmanpaine 1026 hPa
Näkyvyys: 16.1 km
selkeää

METAR: KFRM 261956Z AUTO 31011KT 10SM CLR M04/M09 A3029 RMK AO2 SLP279 T10391089 FZRANO

Aika: 14:41 (20:41 UTC)


TAF: puuttuu

Säähavainnot ja -ennusteet yli 4000 lentoasemalta (METAR- ja TAF-raportit).

Käytössä olevat sääasemat on merkitty karttaan keltaisilla ja punaisilla pisteillä.

Aseta hiiri pisteen päälle nähdäksesi sääaseman nimen.

Klikkaa sitten nähdäksesi säähavainnot ja -ennusteet.

Kartan vaihtaminen: klikkaa mustalla rastilla varustettuja vihreitä pisteitä, niin voit zoomata sisään; viivalla varustettua vihreää pistettä, niin voit zoomata ulos tai vihreitä nuolia, niin pääset viereisille kartoille.


METAR-TAF: